Time,TemperatureF,DewpointF,PressureIn,WindDirection,WindDirectionDegrees,WindSpeedMPH,WindSpeedGustMPH,Humidity,HourlyPrecipIn,Conditions,Clouds,dailyrainin,SoftwareType,DateUTC
2013-03-10 00:02:00,47.6,38.3,30.21,ENE,68,0.0,0.0,70,0.00,,,0.00,Wunderground v.1.15,2013-03-10 05:02:00,
2013-03-10 00:08:00,47.5,38.2,30.20,ENE,67,0.0,0.0,70,0.00,,,0.00,Wunderground v.1.15,2013-03-10 05:08:00,
2013-03-10 00:14:00,47.6,37.6,30.20,ENE,66,0.0,0.0,68,0.00,,,0.00,Wunderground v.1.15,2013-03-10 05:14:00,
2013-03-10 00:16:00,47.7,37.3,30.20,ENE,66,0.0,0.0,67,0.00,,,0.00,Wunderground v.1.15,2013-03-10 05:16:00,
2013-03-10 00:22:00,47.8,37.4,30.20,ENE,67,0.0,0.0,67,0.00,,,0.00,Wunderground v.1.15,2013-03-10 05:22:00,
2013-03-10 00:28:00,48.0,36.8,30.20,ENE,67,0.0,0.0,65,0.00,,,0.00,Wunderground v.1.15,2013-03-10 05:28:00,
2013-03-10 00:34:00,47.9,37.1,30.20,ENE,66,0.0,0.0,66,0.00,,,0.00,Wunderground v.1.15,2013-03-10 05:34:00,
2013-03-10 00:40:00,47.6,36.8,30.20,ENE,67,0.0,0.0,66,0.00,,,0.00,Wunderground v.1.15,2013-03-10 05:40:00,
2013-03-10 00:46:00,47.4,37.4,30.19,ENE,66,0.0,0.0,68,0.00,,,0.00,Wunderground v.1.15,2013-03-10 05:46:00,
2013-03-10 00:52:00,47.0,38.1,30.19,ENE,67,0.0,0.0,71,0.00,,,0.00,Wunderground v.1.15,2013-03-10 05:52:00,
2013-03-10 00:58:00,46.5,38.0,30.20,ENE,67,0.0,0.0,72,0.00,,,0.00,Wunderground v.1.15,2013-03-10 05:58:00,
2013-03-10 01:04:00,46.3,37.4,30.19,ENE,66,0.0,1.0,71,0.00,,,0.00,Wunderground v.1.15,2013-03-10 06:04:00,
2013-03-10 01:10:00,46.2,38.0,30.19,ENE,66,0.0,1.0,73,0.00,,,0.00,Wunderground v.1.15,2013-03-10 06:10:00,
2013-03-10 01:16:00,46.1,38.3,30.19,ENE,67,0.0,1.0,74,0.00,,,0.00,Wunderground v.1.15,2013-03-10 06:16:00,
2013-03-10 01:22:00,46.3,37.8,30.19,ENE,66,0.0,1.0,72,0.00,,,0.00,Wunderground v.1.15,2013-03-10 06:22:00,
2013-03-10 01:28:00,46.2,37.7,30.19,ENE,67,0.0,1.0,72,0.00,,,0.00,Wunderground v.1.15,2013-03-10 06:28:00,
2013-03-10 01:34:00,46.1,37.9,30.19,ENE,67,0.0,1.0,73,0.00,,,0.00,Wunderground v.1.15,2013-03-10 06:34:00,
2013-03-10 01:40:00,45.8,37.6,30.19,ENE,67,0.0,1.0,73,0.00,,,0.00,Wunderground v.1.15,2013-03-10 06:40:00,
2013-03-10 01:46:00,45.5,38.0,30.19,ENE,66,0.0,1.0,75,0.00,,,0.00,Wunderground v.1.15,2013-03-10 06:46:00,
2013-03-10 01:52:00,45.3,37.8,30.18,ENE,66,0.0,1.0,75,0.00,,,0.00,Wunderground v.1.15,2013-03-10 06:52:00,
2013-03-10 01:58:00,45.2,38.1,30.19,NE,38,0.0,1.0,76,0.00,,,0.00,Wunderground v.1.15,2013-03-10 06:58:00,
2013-03-10 03:04:00,45.5,37.3,30.18,NE,39,0.0,1.0,73,0.00,,,0.00,Wunderground v.1.15,2013-03-10 07:04:00,
2013-03-10 03:10:00,46.0,37.1,30.18,NE,56,0.0,1.0,71,0.00,,,0.00,Wunderground v.1.15,2013-03-10 07:10:00,
2013-03-10 03:16:00,46.4,36.8,30.18,NE,56,0.0,1.0,69,0.00,,,0.00,Wunderground v.1.15,2013-03-10 07:16:00,
2013-03-10 03:22:00,46.4,36.8,30.18,NE,56,0.0,1.0,69,0.00,,,0.00,Wunderground v.1.15,2013-03-10 07:22:00,
2013-03-10 03:28:00,46.3,37.4,30.18,NE,56,0.0,1.0,71,0.00,,,0.00,Wunderground v.1.15,2013-03-10 07:28:00,
2013-03-10 03:34:00,45.9,37.4,30.17,NE,56,0.0,1.0,72,0.00,,,0.00,Wunderground v.1.15,2013-03-10 07:34:00,
2013-03-10 03:40:00,45.7,37.5,30.17,NE,56,0.0,1.0,73,0.00,,,0.00,Wunderground v.1.15,2013-03-10 07:40:00,
2013-03-10 03:46:00,45.6,37.4,30.16,NE,56,0.0,1.0,73,0.00,,,0.00,Wunderground v.1.15,2013-03-10 07:46:00,
2013-03-10 03:52:00,45.4,37.6,30.16,NE,55,0.0,1.0,74,0.00,,,0.00,Wunderground v.1.15,2013-03-10 07:52:00,
2013-03-10 03:58:00,45.5,37.7,30.16,NE,56,0.0,1.0,74,0.00,,,0.00,Wunderground v.1.15,2013-03-10 07:58:00,
2013-03-10 04:04:00,45.4,37.6,30.15,NE,56,0.0,1.0,74,0.00,,,0.00,Wunderground v.1.15,2013-03-10 08:04:00,
2013-03-10 04:10:00,45.6,37.8,30.15,ESE,121,0.0,1.0,74,0.00,,,0.00,Wunderground v.1.15,2013-03-10 08:10:00,
2013-03-10 04:16:00,45.5,37.7,30.15,ESE,123,0.0,1.0,74,0.00,,,0.00,Wunderground v.1.15,2013-03-10 08:16:00,
2013-03-10 04:22:00,45.5,38.0,30.15,ESE,122,1.0,1.0,75,0.00,,,0.00,Wunderground v.1.15,2013-03-10 08:22:00,
2013-03-10 04:28:00,45.6,37.8,30.15,SE,141,1.0,2.0,74,0.00,,,0.00,Wunderground v.1.15,2013-03-10 08:28:00,
2013-03-10 04:34:00,45.7,37.5,30.14,SSE,147,2.0,3.0,73,0.00,,,0.00,Wunderground v.1.15,2013-03-10 08:34:00,
2013-03-10 04:40:00,45.9,37.7,30.14,SSE,148,3.0,3.0,73,0.00,,,0.00,Wunderground v.1.15,2013-03-10 08:40:00,
2013-03-10 04:46:00,45.9,37.7,30.14,SSE,148,2.0,3.0,73,0.00,,,0.00,Wunderground v.1.15,2013-03-10 08:46:00,
2013-03-10 04:52:00,45.8,38.0,30.14,SE,146,0.0,1.0,74,0.00,,,0.00,Wunderground v.1.15,2013-03-10 08:52:00,
2013-03-10 04:58:00,45.6,37.8,30.14,SSE,148,0.0,1.0,74,0.00,,,0.00,Wunderground v.1.15,2013-03-10 08:58:00,
2013-03-10 05:04:00,45.7,37.9,30.14,SE,146,0.0,1.0,74,0.00,,,0.00,Wunderground v.1.15,2013-03-10 09:04:00,
2013-03-10 05:10:00,45.9,37.4,30.14,SE,146,0.0,1.0,72,0.00,,,0.00,Wunderground v.1.15,2013-03-10 09:10:00,
2013-03-10 05:16:00,46.2,36.6,30.14,ESE,116,1.0,2.0,69,0.00,,,0.00,Wunderground v.1.15,2013-03-10 09:16:00,
2013-03-10 05:22:00,46.8,36.0,30.14,SE,134,1.0,1.0,66,0.00,,,0.00,Wunderground v.1.15,2013-03-10 09:22:00,
2013-03-10 05:28:00,47.2,35.6,30.14,SE,125,1.0,2.0,64,0.00,,,0.00,Wunderground v.1.15,2013-03-10 09:28:00,
2013-03-10 05:34:00,47.5,35.9,30.14,SE,145,2.0,2.0,64,0.00,,,0.00,Wunderground v.1.15,2013-03-10 09:34:00,
2013-03-10 05:40:00,47.6,35.6,30.14,SE,143,2.0,2.0,63,0.00,,,0.00,Wunderground v.1.15,2013-03-10 09:40:00,
2013-03-10 05:46:00,47.2,36.0,30.14,SE,145,1.0,2.0,65,0.00,,,0.00,Wunderground v.1.15,2013-03-10 09:46:00,
2013-03-10 05:52:00,47.3,36.1,30.15,SE,145,0.0,1.0,65,0.00,,,0.00,Wunderground v.1.15,2013-03-10 09:52:00,
2013-03-10 05:58:00,46.7,36.3,30.15,SE,146,0.0,1.0,67,0.00,,,0.00,Wunderground v.1.15,2013-03-10 09:58:00,
2013-03-10 06:04:00,46.4,36.4,30.15,SE,145,0.0,1.0,68,0.00,,,0.00,Wunderground v.1.15,2013-03-10 10:04:00,
2013-03-10 06:10:00,46.1,35.4,30.15,SE,143,0.0,1.0,66,0.00,,,0.00,Wunderground v.1.15,2013-03-10 10:10:00,
2013-03-10 06:16:00,46.0,36.0,30.15,SE,143,0.0,1.0,68,0.00,,,0.00,Wunderground v.1.15,2013-03-10 10:16:00,
2013-03-10 06:22:00,45.6,36.7,30.15,SE,143,0.0,1.0,71,0.00,,,0.00,Wunderground v.1.15,2013-03-10 10:22:00,
2013-03-10 06:28:00,45.0,37.2,30.15,SE,143,0.0,1.0,74,0.00,,,0.00,Wunderground v.1.15,2013-03-10 10:28:00,
2013-03-10 06:34:00,44.8,37.4,30.15,SSW,212,0.0,1.0,75,0.00,,,0.00,Wunderground v.1.15,2013-03-10 10:34:00,
2013-03-10 06:40:00,44.8,38.4,30.15,SW,216,0.0,1.0,78,0.00,,,0.00,Wunderground v.1.15,2013-03-10 10:40:00,
2013-03-10 06:46:00,44.8,38.7,30.15,SW,214,0.0,1.0,79,0.00,,,0.00,Wunderground v.1.15,2013-03-10 10:46:00,
2013-03-10 06:52:00,44.7,38.3,30.15,SW,215,0.0,1.0,78,0.00,,,0.00,Wunderground v.1.15,2013-03-10 10:52:00,
2013-03-10 06:58:00,44.6,38.5,30.15,SW,215,0.0,1.0,79,0.00,,,0.00,Wunderground v.1.15,2013-03-10 10:58:00,
2013-03-10 07:04:00,44.7,38.3,30.15,NNE,20,0.0,2.0,78,0.00,,,0.00,Wunderground v.1.15,2013-03-10 11:04:00,
2013-03-10 07:10:00,44.9,38.8,30.16,NNE,14,0.0,1.0,79,0.00,,,0.00,Wunderground v.1.15,2013-03-10 11:10:00,
2013-03-10 07:16:00,45.1,38.6,30.16,North,5,1.0,1.0,78,0.00,,,0.00,Wunderground v.1.15,2013-03-10 11:16:00,
2013-03-10 07:22:00,45.0,38.2,30.16,West,271,0.0,1.0,77,0.00,,,0.00,Wunderground v.1.15,2013-03-10 11:22:00,
2013-03-10 07:28:00,44.5,37.4,30.15,WSW,255,0.0,1.0,76,0.00,,,0.00,Wunderground v.1.15,2013-03-10 11:28:00,
2013-03-10 07:34:00,44.5,38.1,30.15,SW,215,0.0,1.0,78,0.00,,,0.00,Wunderground v.1.15,2013-03-10 11:34:00,
2013-03-10 07:40:00,44.1,37.7,30.15,South,191,0.0,1.0,78,0.00,,,0.00,Wunderground v.1.15,2013-03-10 11:40:00,
2013-03-10 07:46:00,43.9,38.8,30.16,South,191,0.0,1.0,82,0.00,,,0.00,Wunderground v.1.15,2013-03-10 11:46:00,
2013-03-10 07:52:00,43.5,37.7,30.15,ENE,77,0.0,1.0,80,0.00,,,0.00,Wunderground v.1.15,2013-03-10 11:52:00,
2013-03-10 07:58:00,43.3,38.2,30.15,ENE,76,0.0,1.0,82,0.00,,,0.00,Wunderground v.1.15,2013-03-10 11:58:00,
2013-03-10 08:04:00,43.6,39.1,30.16,ENE,77,0.0,1.0,84,0.00,,,0.00,Wunderground v.1.15,2013-03-10 12:04:00,
2013-03-10 08:10:00,43.5,38.7,30.16,ENE,76,0.0,1.0,83,0.00,,,0.00,Wunderground v.1.15,2013-03-10 12:10:00,
2013-03-10 08:16:00,44.0,38.9,30.16,NE,38,1.0,2.0,82,0.00,,,0.00,Wunderground v.1.15,2013-03-10 12:16:00,
2013-03-10 08:22:00,44.3,39.2,30.16,NNE,29,1.0,1.0,82,0.00,,,0.00,Wunderground v.1.15,2013-03-10 12:22:00,
2013-03-10 08:28:00,44.7,39.2,30.16,NNE,29,0.0,1.0,81,0.00,,,0.00,Wunderground v.1.15,2013-03-10 12:28:00,
2013-03-10 08:34:00,44.9,38.8,30.17,North,358,0.0,1.0,79,0.00,,,0.00,Wunderground v.1.15,2013-03-10 12:34:00,
2013-03-10 08:40:00,44.6,38.8,30.17,South,174,0.0,1.0,80,0.00,,,0.00,Wunderground v.1.15,2013-03-10 12:40:00,
2013-03-10 08:46:00,44.3,38.5,30.17,South,174,0.0,1.0,80,0.00,,,0.00,Wunderground v.1.15,2013-03-10 12:46:00,
2013-03-10 08:52:00,44.6,38.5,30.17,South,174,0.0,1.0,79,0.00,,,0.00,Wunderground v.1.15,2013-03-10 12:52:00,
2013-03-10 08:58:00,45.5,38.7,30.17,South,174,0.0,1.0,77,0.00,,,0.00,Wunderground v.1.15,2013-03-10 12:58:00,
2013-03-10 09:04:00,46.4,39.6,30.18,South,174,0.0,1.0,77,0.00,,,0.00,Wunderground v.1.15,2013-03-10 13:04:00,
2013-03-10 09:10:00,46.7,39.9,30.18,South,174,0.0,1.0,77,0.00,,,0.00,Wunderground v.1.15,2013-03-10 13:10:00,
2013-03-10 09:16:00,47.0,39.8,30.18,WNW,288,0.0,1.0,76,0.00,,,0.00,Wunderground v.1.15,2013-03-10 13:16:00,
2013-03-10 09:22:00,47.5,40.0,30.18,SSW,204,1.0,3.0,75,0.00,,,0.00,Wunderground v.1.15,2013-03-10 13:22:00,
2013-03-10 09:28:00,47.8,40.3,30.18,SSW,197,2.0,3.0,75,0.00,,,0.00,Wunderground v.1.15,2013-03-10 13:28:00,
2013-03-10 09:34:00,48.3,40.0,30.18,South,185,2.0,2.0,73,0.00,,,0.00,Wunderground v.1.15,2013-03-10 13:34:00,
2013-03-10 09:40:00,48.7,41.1,30.18,SSE,156,2.0,2.0,75,0.00,,,0.00,Wunderground v.1.15,2013-03-10 13:40:00,
2013-03-10 09:46:00,48.9,41.0,30.18,SW,217,1.0,2.0,74,0.00,,,0.00,Wunderground v.1.15,2013-03-10 13:46:00,
2013-03-10 09:52:00,48.0,39.8,30.18,SSW,205,2.0,4.0,73,0.00,,,0.00,Wunderground v.1.15,2013-03-10 13:52:00,
2013-03-10 09:58:00,47.8,38.8,30.18,South,190,2.0,4.0,71,0.00,,,0.00,Wunderground v.1.15,2013-03-10 13:58:00,
2013-03-10 10:04:00,48.0,38.7,30.18,South,181,2.0,2.0,70,0.00,,,0.00,Wunderground v.1.15,2013-03-10 14:04:00,
2013-03-10 10:10:00,48.5,38.4,30.18,South,170,1.0,1.0,68,0.00,,,0.00,Wunderground v.1.15,2013-03-10 14:10:00,
2013-03-10 10:16:00,48.8,39.4,30.17,SW,221,0.0,1.0,70,0.00,,,0.00,Wunderground v.1.15,2013-03-10 14:16:00,
2013-03-10 10:22:00,49.5,39.4,30.17,SE,127,0.0,1.0,68,0.00,,,0.00,Wunderground v.1.15,2013-03-10 14:22:00,
2013-03-10 10:28:00,50.4,38.7,30.18,SSE,167,0.0,1.0,64,0.00,,,0.00,Wunderground v.1.15,2013-03-10 14:28:00,
2013-03-10 10:34:00,51.4,39.2,30.17,SSE,159,0.0,1.0,63,0.00,,,0.00,Wunderground v.1.15,2013-03-10 14:34:00,
2013-03-10 10:40:00,52.1,39.1,30.17,SSE,163,1.0,2.0,61,0.00,,,0.00,Wunderground v.1.15,2013-03-10 14:40:00,
2013-03-10 10:46:00,53.0,39.5,30.17,SSW,201,2.0,2.0,60,0.00,,,0.00,Wunderground v.1.15,2013-03-10 14:46:00,
2013-03-10 10:52:00,53.5,39.5,30.17,SW,219,1.0,2.0,59,0.00,,,0.00,Wunderground v.1.15,2013-03-10 14:52:00,
2013-03-10 10:58:00,53.9,37.1,30.17,South,188,2.0,3.0,53,0.00,,,0.00,Wunderground v.1.15,2013-03-10 14:58:00,
2013-03-10 11:04:00,54.1,37.8,30.16,SSW,201,3.0,3.0,54,0.00,,,0.00,Wunderground v.1.15,2013-03-10 15:04:00,
2013-03-10 11:10:00,54.3,37.0,30.16,South,184,3.0,4.0,52,0.00,,,0.00,Wunderground v.1.15,2013-03-10 15:10:00,
2013-03-10 11:16:00,54.3,36.5,30.16,South,181,4.0,5.0,51,0.00,,,0.00,Wunderground v.1.15,2013-03-10 15:16:00,
2013-03-10 11:22:00,54.5,37.2,30.15,South,179,4.0,4.0,52,0.00,,,0.00,Wunderground v.1.15,2013-03-10 15:22:00,
2013-03-10 11:28:00,54.8,38.0,30.15,South,181,3.0,4.0,53,0.00,,,0.00,Wunderground v.1.15,2013-03-10 15:28:00,
2013-03-10 11:34:00,55.3,37.5,30.16,South,177,2.0,3.0,51,0.00,,,0.00,Wunderground v.1.15,2013-03-10 15:34:00,
2013-03-10 11:40:00,56.3,38.9,30.15,SSE,150,1.0,2.0,52,0.00,,,0.00,Wunderground v.1.15,2013-03-10 15:40:00,
2013-03-10 11:46:00,57.3,39.3,30.15,SSW,210,1.0,2.0,51,0.00,,,0.00,Wunderground v.1.15,2013-03-10 15:46:00,
2013-03-10 11:52:00,57.4,38.9,30.15,SSW,205,2.0,4.0,50,0.00,,,0.00,Wunderground v.1.15,2013-03-10 15:52:00,
2013-03-10 11:58:00,57.2,40.2,30.15,SSW,208,3.0,5.0,53,0.00,,,0.00,Wunderground v.1.15,2013-03-10 15:58:00,
2013-03-10 12:04:00,57.3,39.3,30.14,SSW,207,4.0,4.0,51,0.00,,,0.00,Wunderground v.1.15,2013-03-10 16:04:00,
2013-03-10 12:10:00,58.0,38.9,30.14,SW,223,3.0,3.0,49,0.00,,,0.00,Wunderground v.1.15,2013-03-10 16:10:00,
2013-03-10 12:16:00,58.4,37.7,30.14,SSW,207,3.0,3.0,46,0.00,,,0.00,Wunderground v.1.15,2013-03-10 16:16:00,
2013-03-10 12:22:00,59.2,37.9,30.15,SW,229,2.0,3.0,45,0.00,,,0.00,Wunderground v.1.15,2013-03-10 16:22:00,
2013-03-10 12:28:00,59.3,37.4,30.14,SW,229,2.0,3.0,44,0.00,,,0.00,Wunderground v.1.15,2013-03-10 16:28:00,
2013-03-10 12:34:00,59.8,37.8,30.14,SSE,152,1.0,2.0,44,0.00,,,0.00,Wunderground v.1.15,2013-03-10 16:34:00,
2013-03-10 12:40:00,61.3,36.8,30.14,NE,36,1.0,1.0,40,0.00,,,0.00,Wunderground v.1.15,2013-03-10 16:40:00,
2013-03-10 12:46:00,62.8,36.8,30.14,NNE,22,0.0,1.0,38,0.00,,,0.00,Wunderground v.1.15,2013-03-10 16:46:00,
2013-03-10 12:52:00,62.5,35.9,30.13,SW,221,0.0,1.0,37,0.00,,,0.00,Wunderground v.1.15,2013-03-10 16:52:00,
2013-03-10 12:58:00,62.8,36.1,30.13,SW,217,0.0,1.0,37,0.00,,,0.00,Wunderground v.1.15,2013-03-10 16:58:00,
2013-03-10 13:04:00,63.6,38.8,30.12,SSE,167,0.0,1.0,40,0.00,,,0.00,Wunderground v.1.15,2013-03-10 17:04:00,
2013-03-10 13:10:00,63.3,35.9,30.12,SW,222,0.0,1.0,36,0.00,,,0.00,Wunderground v.1.15,2013-03-10 17:10:00,
2013-03-10 13:16:00,63.4,36.0,30.12,SW,226,0.0,1.0,36,0.00,,,0.00,Wunderground v.1.15,2013-03-10 17:16:00,
2013-03-10 13:22:00,64.1,35.9,30.12,SSW,198,0.0,1.0,35,0.00,,,0.00,Wunderground v.1.15,2013-03-10 17:22:00,
2013-03-10 13:28:00,63.8,36.3,30.11,SSW,204,1.0,2.0,36,0.00,,,0.00,Wunderground v.1.15,2013-03-10 17:28:00,
2013-03-10 13:34:00,63.9,36.4,30.11,SW,219,1.0,2.0,36,0.00,,,0.00,Wunderground v.1.15,2013-03-10 17:34:00,
2013-03-10 13:40:00,64.1,38.6,30.10,SW,217,2.0,2.0,39,0.00,,,0.00,Wunderground v.1.15,2013-03-10 17:40:00,
2013-03-10 13:46:00,63.6,35.4,30.10,South,187,3.0,4.0,35,0.00,,,0.00,Wunderground v.1.15,2013-03-10 17:46:00,
2013-03-10 13:52:00,63.4,35.2,30.10,South,187,3.0,4.0,35,0.00,,,0.00,Wunderground v.1.15,2013-03-10 17:52:00,
2013-03-10 13:58:00,63.6,36.1,30.10,SSW,199,2.0,4.0,36,0.00,,,0.00,Wunderground v.1.15,2013-03-10 17:58:00,
2013-03-10 14:04:00,64.6,34.8,30.10,SSW,197,1.0,2.0,33,0.00,,,0.00,Wunderground v.1.15,2013-03-10 18:04:00,
2013-03-10 14:10:00,65.0,35.2,30.10,South,180,0.0,1.0,33,0.00,,,0.00,Wunderground v.1.15,2013-03-10 18:10:00,
2013-03-10 14:16:00,65.5,35.6,30.09,SSE,161,1.0,1.0,33,0.00,,,0.00,Wunderground v.1.15,2013-03-10 18:16:00,
2013-03-10 14:22:00,66.1,36.1,30.09,SSE,153,0.0,2.0,33,0.00,,,0.00,Wunderground v.1.15,2013-03-10 18:22:00,
2013-03-10 14:28:00,66.4,35.6,30.09,SE,125,1.0,2.0,32,0.00,,,0.00,Wunderground v.1.15,2013-03-10 18:28:00,
2013-03-10 14:34:00,66.7,35.9,30.09,NNE,16,1.0,3.0,32,0.00,,,0.00,Wunderground v.1.15,2013-03-10 18:34:00,
2013-03-10 14:40:00,66.5,34.9,30.09,North,1,2.0,2.0,31,0.00,,,0.00,Wunderground v.1.15,2013-03-10 18:40:00,
2013-03-10 14:46:00,67.2,35.5,30.08,NE,43,1.0,2.0,31,0.00,,,0.00,Wunderground v.1.15,2013-03-10 18:46:00,
2013-03-10 14:52:00,67.7,36.0,30.08,ESE,115,0.0,1.0,31,0.00,,,0.00,Wunderground v.1.15,2013-03-10 18:52:00,
2013-03-10 14:58:00,68.1,36.3,30.07,ESE,117,0.0,2.0,31,0.00,,,0.00,Wunderground v.1.15,2013-03-10 18:58:00,
2013-03-10 15:04:00,68.2,36.4,30.07,ESE,117,0.0,1.0,31,0.00,,,0.00,Wunderground v.1.15,2013-03-10 19:04:00,
2013-03-10 15:10:00,68.7,37.6,30.07,SE,125,0.0,1.0,32,0.00,,,0.00,Wunderground v.1.15,2013-03-10 19:10:00,
2013-03-10 15:16:00,69.6,36.8,30.07,ENE,72,0.0,1.0,30,0.00,,,0.00,Wunderground v.1.15,2013-03-10 19:16:00,
2013-03-10 15:22:00,69.9,37.0,30.07,NNE,30,0.0,1.0,30,0.00,,,0.00,Wunderground v.1.15,2013-03-10 19:22:00,
2013-03-10 15:28:00,70.0,36.3,30.07,North,1,0.0,1.0,29,0.00,,,0.00,Wunderground v.1.15,2013-03-10 19:28:00,
2013-03-10 15:34:00,69.7,36.0,30.07,East,82,0.0,1.0,29,0.00,,,0.00,Wunderground v.1.15,2013-03-10 19:34:00,
2013-03-10 15:40:00,69.9,38.7,30.07,East,91,0.0,1.0,32,0.00,,,0.00,Wunderground v.1.15,2013-03-10 19:40:00,
2013-03-10 15:46:00,69.8,36.1,30.07,WSW,238,0.0,1.0,29,0.00,,,0.00,Wunderground v.1.15,2013-03-10 19:46:00,
2013-03-10 15:52:00,69.9,35.3,30.06,SW,231,0.0,2.0,28,0.00,,,0.00,Wunderground v.1.15,2013-03-10 19:52:00,
2013-03-10 15:58:00,69.4,35.7,30.06,SSW,200,1.0,2.0,29,0.00,,,0.00,Wunderground v.1.15,2013-03-10 19:58:00,
2013-03-10 16:04:00,68.8,35.2,30.05,SSW,212,1.0,1.0,29,0.00,,,0.00,Wunderground v.1.15,2013-03-10 20:04:00,
2013-03-10 16:10:00,68.4,36.6,30.05,SW,229,0.0,1.0,31,0.00,,,0.00,Wunderground v.1.15,2013-03-10 20:10:00,
2013-03-10 16:18:00,68.3,36.5,30.05,SW,231,1.0,1.0,31,0.00,,,0.00,Wunderground v.1.15,2013-03-10 20:18:00,
2013-03-10 16:24:00,69.0,34.5,30.05,SW,231,0.0,1.0,28,0.00,,,0.00,Wunderground v.1.15,2013-03-10 20:24:00,
2013-03-10 16:30:00,69.3,35.7,30.05,SW,231,0.0,1.0,29,0.00,,,0.00,Wunderground v.1.15,2013-03-10 20:30:00,
2013-03-10 16:36:00,69.0,35.4,30.04,SW,231,0.0,1.0,29,0.00,,,0.00,Wunderground v.1.15,2013-03-10 20:36:00,
2013-03-10 16:42:00,69.1,36.3,30.04,SW,231,0.0,1.0,30,0.00,,,0.00,Wunderground v.1.15,2013-03-10 20:42:00,
2013-03-10 16:48:00,69.3,34.8,30.04,SW,231,0.0,1.0,28,0.00,,,0.00,Wunderground v.1.15,2013-03-10 20:48:00,
2013-03-10 16:54:00,69.8,36.1,30.04,SW,231,0.0,1.0,29,0.00,,,0.00,Wunderground v.1.15,2013-03-10 20:54:00,
2013-03-10 17:00:00,69.9,35.3,30.04,NNE,31,0.0,1.0,28,0.00,,,0.00,Wunderground v.1.15,2013-03-10 21:00:00,
2013-03-10 17:06:00,70.0,35.4,30.04,NNE,32,0.0,1.0,28,0.00,,,0.00,Wunderground v.1.15,2013-03-10 21:06:00,
2013-03-10 17:12:00,69.7,36.0,30.04,NNE,28,0.0,2.0,29,0.00,,,0.00,Wunderground v.1.15,2013-03-10 21:12:00,
2013-03-10 17:18:00,69.6,35.9,30.04,NNE,28,1.0,2.0,29,0.00,,,0.00,Wunderground v.1.15,2013-03-10 21:18:00,
2013-03-10 17:24:00,70.2,36.4,30.04,North,3,0.0,1.0,29,0.00,,,0.00,Wunderground v.1.15,2013-03-10 21:24:00,
2013-03-10 17:30:00,70.2,37.3,30.04,NNE,21,0.0,1.0,30,0.00,,,0.00,Wunderground v.1.15,2013-03-10 21:30:00,
2013-03-10 17:36:00,69.5,34.9,30.04,North,10,1.0,2.0,28,0.00,,,0.00,Wunderground v.1.15,2013-03-10 21:36:00,
2013-03-10 17:42:00,69.4,35.7,30.04,North,10,0.0,1.0,29,0.00,,,0.00,Wunderground v.1.15,2013-03-10 21:42:00,
2013-03-10 17:48:00,69.4,36.6,30.04,North,10,0.0,1.0,30,0.00,,,0.00,Wunderground v.1.15,2013-03-10 21:48:00,
2013-03-10 17:54:00,69.8,37.8,30.03,North,10,0.0,1.0,31,0.00,,,0.00,Wunderground v.1.15,2013-03-10 21:54:00,
2013-03-10 18:02:00,69.4,39.0,30.04,North,10,0.0,1.0,33,0.00,,,0.00,Wunderground v.1.15,2013-03-10 22:02:00,
2013-03-10 18:08:00,69.7,38.5,30.04,North,10,0.0,1.0,32,0.00,,,0.00,Wunderground v.1.15,2013-03-10 22:08:00,
2013-03-10 18:14:00,69.6,37.6,30.04,North,10,0.0,1.0,31,0.00,,,0.00,Wunderground v.1.15,2013-03-10 22:14:00,
2013-03-10 18:20:00,69.1,36.3,30.03,SSW,201,0.0,1.0,30,0.00,,,0.00,Wunderground v.1.15,2013-03-10 22:20:00,
2013-03-10 18:26:00,68.2,38.0,30.03,WSW,240,1.0,2.0,33,0.00,,,0.00,Wunderground v.1.15,2013-03-10 22:26:00,
2013-03-10 18:32:00,66.4,37.2,30.02,SW,225,2.0,2.0,34,0.00,,,0.00,Wunderground v.1.15,2013-03-10 22:32:00,
2013-03-10 18:38:00,65.3,37.6,30.01,SSW,210,2.0,3.0,36,0.00,,,0.00,Wunderground v.1.15,2013-03-10 22:38:00,
2013-03-10 18:44:00,64.2,38.7,30.02,SW,217,1.0,1.0,39,0.00,,,0.00,Wunderground v.1.15,2013-03-10 22:44:00,
2013-03-10 18:50:00,64.1,37.3,30.02,SW,218,0.0,1.0,37,0.00,,,0.00,Wunderground v.1.15,2013-03-10 22:50:00,
2013-03-10 18:56:00,64.0,36.5,30.02,SW,218,0.0,1.0,36,0.00,,,0.00,Wunderground v.1.15,2013-03-10 22:56:00,
2013-03-10 19:04:00,63.6,37.5,30.03,NNE,25,1.0,2.0,38,0.00,,,0.00,Wunderground v.1.15,2013-03-10 23:04:00,
2013-03-10 19:10:00,64.0,36.5,30.03,NNE,27,1.0,1.0,36,0.00,,,0.00,Wunderground v.1.15,2013-03-10 23:10:00,
2013-03-10 19:16:00,64.1,38.0,30.03,NE,37,1.0,1.0,38,0.00,,,0.00,Wunderground v.1.15,2013-03-10 23:16:00,
2013-03-10 19:22:00,63.5,38.1,30.03,NNE,20,1.0,2.0,39,0.00,,,0.00,Wunderground v.1.15,2013-03-10 23:22:00,
2013-03-10 19:28:00,63.7,37.6,30.03,WNW,286,1.0,2.0,38,0.00,,,0.00,Wunderground v.1.15,2013-03-10 23:28:00,
2013-03-10 19:34:00,62.8,38.1,30.02,West,271,0.0,1.0,40,0.00,,,0.00,Wunderground v.1.15,2013-03-10 23:34:00,
2013-03-10 19:40:00,62.0,39.8,30.02,West,271,0.0,1.0,44,0.00,,,0.00,Wunderground v.1.15,2013-03-10 23:40:00,
2013-03-10 19:46:00,61.3,39.8,30.02,North,357,0.0,1.0,45,0.00,,,0.00,Wunderground v.1.15,2013-03-10 23:46:00,
2013-03-10 19:52:00,60.9,40.5,30.02,North,356,1.0,1.0,47,0.00,,,0.00,Wunderground v.1.15,2013-03-10 23:52:00,
2013-03-10 19:58:00,60.2,41.0,30.02,North,1,1.0,1.0,49,0.00,,,0.00,Wunderground v.1.15,2013-03-10 23:58:00,
2013-03-10 20:04:00,59.7,41.5,30.02,ENE,73,1.0,1.0,51,0.00,,,0.00,Wunderground v.1.15,2013-03-11 00:04:00,
2013-03-10 20:10:00,59.1,40.5,30.02,NE,55,2.0,2.0,50,0.00,,,0.00,Wunderground v.1.15,2013-03-11 00:10:00,
2013-03-10 20:16:00,59.4,39.7,30.02,NE,51,1.0,2.0,48,0.00,,,0.00,Wunderground v.1.15,2013-03-11 00:16:00,
2013-03-10 20:22:00,59.6,39.3,30.02,NE,38,1.0,1.0,47,0.00,,,0.00,Wunderground v.1.15,2013-03-11 00:22:00,
2013-03-10 20:28:00,59.4,39.1,30.02,NE,38,0.0,1.0,47,0.00,,,0.00,Wunderground v.1.15,2013-03-11 00:28:00,
2013-03-10 20:34:00,59.1,39.4,30.02,East,96,0.0,1.0,48,0.00,,,0.00,Wunderground v.1.15,2013-03-11 00:34:00,
2013-03-10 20:40:00,59.1,39.4,30.02,SE,141,1.0,1.0,48,0.00,,,0.00,Wunderground v.1.15,2013-03-11 00:40:00,
2013-03-10 20:48:00,60.4,39.5,30.02,SSE,159,1.0,2.0,46,0.00,,,0.00,Wunderground v.1.15,2013-03-11 00:48:00,
2013-03-10 20:54:00,60.6,39.7,30.02,SSW,200,1.0,1.0,46,0.00,,,0.00,Wunderground v.1.15,2013-03-11 00:54:00,
2013-03-10 21:00:00,60.5,39.0,30.02,South,188,1.0,1.0,45,0.00,,,0.00,Wunderground v.1.15,2013-03-11 01:00:00,
2013-03-10 21:06:00,60.5,38.5,30.02,South,184,1.0,2.0,44,0.00,,,0.00,Wunderground v.1.15,2013-03-11 01:06:00,
2013-03-10 21:14:00,60.8,38.1,30.01,South,190,1.0,2.0,43,0.00,,,0.00,Wunderground v.1.15,2013-03-11 01:14:00,
2013-03-10 21:20:00,60.8,36.9,30.01,SSE,166,1.0,2.0,41,0.00,,,0.00,Wunderground v.1.15,2013-03-11 01:20:00,
2013-03-10 21:28:00,60.8,36.9,30.01,ESE,103,1.0,3.0,41,0.00,,,0.00,Wunderground v.1.15,2013-03-11 01:28:00,
2013-03-10 21:34:00,60.5,36.7,30.01,North,11,0.0,1.0,41,0.00,,,0.00,Wunderground v.1.15,2013-03-11 01:34:00,
2013-03-10 21:40:00,60.3,36.5,30.01,South,177,0.0,1.0,41,0.00,,,0.00,Wunderground v.1.15,2013-03-11 01:40:00,
2013-03-10 21:48:00,60.2,35.8,30.01,SE,125,1.0,1.0,40,0.00,,,0.00,Wunderground v.1.15,2013-03-11 01:48:00,
2013-03-10 21:54:00,59.9,36.1,30.02,ENE,75,1.0,1.0,41,0.00,,,0.00,Wunderground v.1.15,2013-03-11 01:54:00,
2013-03-10 22:00:00,59.8,35.4,30.01,East,79,1.0,1.0,40,0.00,,,0.00,Wunderground v.1.15,2013-03-11 02:00:00,
2013-03-10 22:08:00,59.4,35.1,30.01,NE,41,1.0,1.0,40,0.00,,,0.00,Wunderground v.1.15,2013-03-11 02:08:00,
2013-03-10 22:14:00,59.1,35.4,30.01,ENE,62,1.0,3.0,41,0.00,,,0.00,Wunderground v.1.15,2013-03-11 02:14:00,
2013-03-10 22:20:00,58.8,35.1,30.02,NE,46,1.0,1.0,41,0.00,,,0.00,Wunderground v.1.15,2013-03-11 02:20:00,
2013-03-10 22:26:00,58.9,34.6,30.02,NE,36,1.0,2.0,40,0.00,,,0.00,Wunderground v.1.15,2013-03-11 02:26:00,
2013-03-10 22:32:00,58.8,34.5,30.02,NNE,27,1.0,1.0,40,0.00,,,0.00,Wunderground v.1.15,2013-03-11 02:32:00,
2013-03-10 22:38:00,58.8,34.5,30.02,East,92,0.0,1.0,40,0.00,,,0.00,Wunderground v.1.15,2013-03-11 02:38:00,
2013-03-10 22:44:00,58.4,34.2,30.02,SSE,159,1.0,2.0,40,0.00,,,0.00,Wunderground v.1.15,2013-03-11 02:44:00,
2013-03-10 22:50:00,58.7,34.4,30.02,ESE,113,1.0,1.0,40,0.00,,,0.00,Wunderground v.1.15,2013-03-11 02:50:00,
2013-03-10 22:56:00,58.7,34.4,30.02,ESE,122,1.0,1.0,40,0.00,,,0.00,Wunderground v.1.15,2013-03-11 02:56:00,
2013-03-10 23:02:00,58.5,34.2,30.02,SE,128,1.0,1.0,40,0.00,,,0.00,Wunderground v.1.15,2013-03-11 03:02:00,
2013-03-10 23:08:00,58.1,34.5,30.02,SE,142,1.0,1.0,41,0.00,,,0.00,Wunderground v.1.15,2013-03-11 03:08:00,
2013-03-10 23:14:00,58.2,34.0,30.02,South,176,0.0,1.0,40,0.00,,,0.00,Wunderground v.1.15,2013-03-11 03:14:00,
2013-03-10 23:20:00,58.6,34.3,30.02,South,180,0.0,1.0,40,0.00,,,0.00,Wunderground v.1.15,2013-03-11 03:20:00,
2013-03-10 23:26:00,58.3,34.1,30.02,ESE,122,0.0,1.0,40,0.00,,,0.00,Wunderground v.1.15,2013-03-11 03:26:00,
2013-03-10 23:32:00,58.0,33.8,30.01,SSE,158,0.0,1.0,40,0.00,,,0.00,Wunderground v.1.15,2013-03-11 03:32:00,
2013-03-10 23:38:00,57.1,34.8,30.01,ESE,112,0.0,1.0,43,0.00,,,0.00,Wunderground v.1.15,2013-03-11 03:38:00,
2013-03-10 23:44:00,56.2,35.1,30.01,ESE,114,1.0,1.0,45,0.00,,,0.00,Wunderground v.1.15,2013-03-11 03:44:00,
2013-03-10 23:50:00,55.3,34.9,30.01,ESE,103,1.0,1.0,46,0.00,,,0.00,Wunderground v.1.15,2013-03-11 03:50:00,
2013-03-10 23:58:00,54.8,34.4,30.01,ENE,63,1.0,2.0,46,0.00,,,0.00,Wunderground v.1.15,2013-03-11 03:58:00,